Biberach a.d. Riß Airport EDMB

Flugplatz Daten

Name: Biberach a.d. Riß Airport

Ident: EDMB

Lat: 48,11111069

Long: 9,762778282

Platzhöhe: 1903 ft

IataCode:

City: Biberach an der Riß

Metar

2020/11/03 02:58
CYJT 030258Z 22037G46KT 15SM -SHRA FEW036 SCT050 07/02 A2903 RMK SC2SC2 CVCTV CLD EDMBD SLP833 DENSITY ALT 200FT

Taf

Gewünschte Webcam nicht vorhanden? Dann fügen Sie eine hinzu. Sie wird dann so schnell wie möglich freigeschaltet
Url: Title: